createdAt,value
2023-03-14T00:01:13.688Z,8.96
2023-03-14T00:03:40.164Z,8.90
2023-03-14T00:06:07.694Z,8.87
2023-03-14T00:08:34.320Z,8.87
2023-03-14T00:11:12.921Z,8.88
2023-03-14T00:13:40.018Z,8.87
2023-03-14T00:16:12.166Z,8.86
2023-03-14T00:18:39.588Z,8.86
2023-03-14T00:21:08.110Z,8.89
2023-03-14T00:23:36.246Z,8.90
2023-03-14T00:26:11.696Z,8.93
2023-03-14T00:28:38.356Z,8.98
2023-03-14T00:31:07.283Z,9.02
2023-03-14T00:33:34.235Z,9.02
2023-03-14T00:36:03.991Z,9.01
2023-03-14T00:38:31.601Z,9.02
2023-03-14T00:40:58.049Z,9.02
2023-03-14T00:43:25.762Z,9.02
2023-03-14T00:45:53.119Z,9.06
2023-03-14T00:48:20.766Z,9.09
2023-03-14T00:50:47.924Z,9.12
2023-03-14T00:53:14.513Z,9.16
2023-03-14T00:55:43.319Z,9.20
2023-03-14T00:58:11.192Z,9.17
2023-03-14T01:00:37.720Z,9.18
2023-03-14T01:03:04.585Z,9.18
2023-03-14T01:05:31.602Z,9.14
2023-03-14T01:07:58.066Z,9.14
2023-03-14T01:10:24.907Z,9.12
2023-03-14T01:12:51.433Z,9.12
2023-03-14T01:15:17.965Z,9.13
2023-03-14T01:17:44.430Z,9.15
2023-03-14T01:20:13.373Z,9.14
2023-03-14T01:22:40.652Z,9.11
2023-03-14T01:25:09.674Z,9.05
2023-03-14T01:27:36.317Z,9.01
2023-03-14T01:30:03.680Z,8.98
2023-03-14T01:32:30.334Z,8.94
2023-03-14T01:34:56.969Z,8.92
2023-03-14T01:37:23.410Z,8.88
2023-03-14T01:39:49.831Z,8.84
2023-03-14T01:42:16.753Z,8.82
2023-03-14T01:45:01.482Z,8.77
2023-03-14T01:47:28.613Z,8.75
2023-03-14T01:50:02.444Z,8.74
2023-03-14T01:52:34.677Z,8.71
2023-03-14T01:55:10.943Z,8.68
2023-03-14T01:57:42.068Z,8.68
2023-03-14T02:00:13.694Z,8.67
2023-03-14T02:02:46.755Z,8.65
2023-03-14T02:05:17.063Z,8.64
2023-03-14T02:07:55.670Z,8.64
2023-03-14T02:10:25.087Z,8.63
2023-03-14T02:12:54.369Z,8.63
2023-03-14T02:15:20.762Z,8.64
2023-03-14T02:17:48.033Z,8.64
2023-03-14T02:20:36.372Z,8.68
2023-03-14T02:23:03.067Z,8.68
2023-03-14T02:25:42.747Z,8.68
2023-03-14T02:28:09.440Z,8.69
2023-03-14T02:30:36.355Z,8.67
2023-03-14T02:33:08.977Z,8.68
2023-03-14T02:35:43.588Z,8.68
2023-03-14T02:38:24.843Z,8.68
2023-03-14T02:40:51.931Z,8.69
2023-03-14T02:43:18.452Z,8.69
2023-03-14T02:45:49.652Z,8.69
2023-03-14T02:48:24.329Z,8.69
2023-03-14T02:50:55.339Z,8.69
2023-03-14T02:53:25.952Z,8.68
2023-03-14T02:55:52.461Z,8.69
2023-03-14T02:58:20.392Z,8.69
2023-03-14T03:00:49.864Z,8.68
2023-03-14T03:03:16.753Z,8.67
2023-03-14T03:05:46.182Z,8.70
2023-03-14T03:08:12.652Z,8.70
2023-03-14T03:10:39.120Z,8.70
2023-03-14T03:13:05.555Z,8.69
2023-03-14T03:15:32.035Z,8.70
2023-03-14T03:17:58.433Z,8.69
2023-03-14T03:20:25.024Z,8.70
2023-03-14T03:22:51.719Z,8.69
2023-03-14T03:25:18.194Z,8.70
2023-03-14T03:27:44.621Z,8.70
2023-03-14T03:30:11.607Z,8.69
2023-03-14T03:32:38.253Z,8.64
2023-03-14T03:35:05.654Z,8.65
2023-03-14T03:37:33.070Z,8.65
2023-03-14T03:39:59.654Z,8.66
2023-03-14T03:42:27.840Z,8.67
2023-03-14T03:44:54.612Z,8.67
2023-03-14T03:47:21.052Z,8.68
2023-03-14T03:49:47.548Z,8.64
2023-03-14T03:52:13.944Z,8.66
2023-03-14T03:54:40.410Z,8.67
2023-03-14T03:57:07.185Z,8.67
2023-03-14T03:59:33.641Z,8.67
2023-03-14T04:02:00.158Z,8.69
2023-03-14T04:04:26.863Z,8.73
2023-03-14T04:06:53.481Z,8.77
2023-03-14T04:09:19.886Z,8.76
2023-03-14T04:11:46.293Z,8.79
2023-03-14T04:14:12.708Z,8.82
2023-03-14T04:16:39.148Z,8.82
2023-03-14T04:19:05.554Z,8.85
2023-03-14T04:21:32.012Z,8.87
2023-03-14T04:23:58.461Z,8.90
2023-03-14T04:26:24.992Z,8.90
2023-03-14T04:28:51.394Z,8.93
2023-03-14T04:31:22.201Z,8.95
2023-03-14T04:33:48.778Z,8.99
2023-03-14T04:36:15.430Z,9.01
2023-03-14T04:38:41.898Z,9.03
2023-03-14T04:41:08.295Z,9.03
2023-03-14T04:43:34.744Z,9.04
2023-03-14T04:46:01.518Z,9.07
2023-03-14T04:48:28.619Z,9.10
2023-03-14T04:50:55.472Z,9.11
2023-03-14T04:53:22.191Z,9.10
2023-03-14T04:55:53.669Z,9.11
2023-03-14T04:58:20.331Z,9.14
2023-03-14T05:00:47.192Z,9.13
2023-03-14T05:03:15.926Z,9.12
2023-03-14T05:05:42.526Z,9.10
2023-03-14T05:08:09.218Z,9.12
2023-03-14T05:10:35.882Z,9.14
2023-03-14T05:13:02.424Z,9.12
2023-03-14T05:15:28.910Z,9.04
2023-03-14T05:17:55.457Z,8.98
2023-03-14T05:20:22.346Z,8.92
2023-03-14T05:22:48.861Z,8.86
2023-03-14T05:25:15.318Z,8.82
2023-03-14T05:27:41.753Z,8.78
2023-03-14T05:30:09.440Z,8.76
2023-03-14T05:32:35.898Z,8.72
2023-03-14T05:35:02.439Z,8.69
2023-03-14T05:37:29.247Z,8.68
2023-03-14T05:39:55.656Z,8.67
2023-03-14T05:42:22.108Z,8.65
2023-03-14T05:44:48.582Z,8.65
2023-03-14T05:47:15.024Z,8.63
2023-03-14T05:49:41.519Z,8.62
2023-03-14T05:52:08.017Z,8.58
2023-03-14T05:54:34.504Z,8.59
2023-03-14T05:57:00.911Z,8.55
2023-03-14T05:59:27.409Z,8.55
2023-03-14T06:01:53.808Z,8.55
2023-03-14T06:04:20.296Z,8.53
2023-03-14T06:06:46.800Z,8.52
2023-03-14T06:09:13.251Z,8.53
2023-03-14T06:11:39.647Z,8.52
2023-03-14T06:14:06.086Z,8.52
2023-03-14T06:16:33.165Z,8.53
2023-03-14T06:18:59.797Z,8.55
2023-03-14T06:21:26.512Z,8.58
2023-03-14T06:23:52.906Z,8.59
2023-03-14T06:26:19.417Z,8.60
2023-03-14T06:28:45.935Z,8.59
2023-03-14T06:31:12.693Z,8.62
2023-03-14T06:33:39.169Z,8.60
2023-03-14T06:36:05.984Z,8.58
2023-03-14T06:38:32.480Z,8.59
2023-03-14T06:41:04.822Z,8.58
2023-03-14T06:43:31.465Z,8.59
2023-03-14T06:45:57.988Z,8.53
2023-03-14T06:48:24.472Z,8.49
2023-03-14T06:50:51.046Z,8.42
2023-03-14T06:53:17.549Z,8.29
2023-03-14T06:55:44.991Z,8.21
2023-03-14T06:58:11.430Z,8.16
2023-03-14T07:00:38.064Z,8.07
2023-03-14T07:03:04.538Z,7.97
2023-03-14T07:05:31.111Z,7.89
2023-03-14T07:07:58.293Z,7.83
2023-03-14T07:10:24.747Z,7.78
2023-03-14T07:12:51.346Z,7.76
2023-03-14T07:15:19.551Z,7.76
2023-03-14T07:17:48.919Z,7.74
2023-03-14T07:20:15.958Z,7.66
2023-03-14T07:22:42.542Z,7.63
2023-03-14T07:25:12.606Z,7.60
2023-03-14T07:27:39.658Z,7.56
2023-03-14T07:30:06.841Z,7.54
2023-03-14T07:32:33.886Z,7.51
2023-03-14T07:35:00.394Z,7.48
2023-03-14T07:37:27.035Z,7.45
2023-03-14T07:39:53.617Z,7.36
2023-03-14T07:42:20.196Z,7.33
2023-03-14T07:44:48.232Z,7.29
2023-03-14T07:47:14.881Z,7.27
2023-03-14T07:49:42.255Z,7.24
2023-03-14T07:52:09.085Z,7.22
2023-03-14T07:54:36.089Z,7.21
2023-03-14T07:57:02.800Z,7.26
2023-03-14T07:59:31.547Z,7.23
2023-03-14T08:01:58.075Z,7.13
2023-03-14T08:04:25.117Z,6.84
2023-03-14T08:06:53.800Z,6.72
2023-03-14T08:09:20.287Z,6.50
2023-03-14T08:11:46.888Z,6.38
2023-03-14T08:14:13.481Z,6.26
2023-03-14T08:16:40.085Z,6.21
2023-03-14T08:19:08.755Z,6.07
2023-03-14T08:21:35.395Z,6.04
2023-03-14T08:24:01.960Z,5.99
2023-03-14T08:26:28.547Z,5.94
2023-03-14T08:28:55.060Z,5.96
2023-03-14T08:31:22.458Z,5.95
2023-03-14T08:33:48.982Z,5.86
2023-03-14T08:36:15.858Z,5.95
2023-03-14T08:38:43.652Z,6.02
2023-03-14T08:41:13.088Z,6.08
2023-03-14T08:43:39.608Z,6.17
2023-03-14T08:46:07.495Z,6.26
2023-03-14T08:48:34.906Z,6.25
2023-03-14T08:51:13.556Z,6.39
2023-03-14T08:53:40.844Z,6.41
2023-03-14T08:56:11.040Z,6.43
2023-03-14T08:58:39.027Z,6.31
2023-03-14T09:01:11.246Z,6.30
2023-03-14T09:03:41.605Z,6.37
2023-03-14T09:06:10.813Z,6.49
2023-03-14T09:08:39.457Z,6.56
2023-03-14T09:11:10.135Z,6.51
2023-03-14T09:13:38.585Z,6.57
2023-03-14T09:16:05.885Z,6.45
2023-03-14T09:18:32.414Z,6.39
2023-03-14T09:20:58.988Z,6.34
2023-03-14T09:23:25.752Z,6.28
2023-03-14T09:25:56.830Z,6.20
2023-03-14T09:28:23.464Z,6.18
2023-03-14T09:30:51.396Z,6.32
2023-03-14T09:33:22.080Z,6.48
2023-03-14T09:35:49.150Z,6.54
2023-03-14T09:38:17.440Z,6.56
2023-03-14T09:40:44.151Z,6.69
2023-03-14T09:43:15.186Z,6.85
2023-03-14T09:45:46.535Z,6.92
2023-03-14T09:48:20.796Z,6.92
2023-03-14T09:50:54.886Z,6.86
2023-03-14T09:53:29.767Z,6.84
2023-03-14T09:56:00.170Z,6.90
2023-03-14T09:58:27.209Z,6.95
2023-03-14T10:00:57.502Z,6.98
2023-03-14T10:03:32.019Z,6.99
2023-03-14T10:05:59.046Z,7.01
2023-03-14T10:08:27.434Z,6.96
2023-03-14T10:10:55.602Z,7.01
2023-03-14T10:13:28.786Z,7.09
2023-03-14T10:16:07.465Z,7.10
2023-03-14T10:18:35.489Z,6.90
2023-03-14T10:21:23.798Z,6.78
2023-03-14T10:23:50.285Z,6.59
2023-03-14T10:26:28.941Z,6.66
2023-03-14T10:29:04.761Z,6.84
2023-03-14T10:31:48.919Z,6.93
2023-03-14T10:34:26.168Z,6.91
2023-03-14T10:36:58.796Z,7.05
2023-03-14T10:39:39.886Z,7.20
2023-03-14T10:42:16.194Z,7.17
2023-03-14T10:44:43.731Z,7.08
2023-03-14T10:47:22.962Z,7.01
2023-03-14T10:49:52.121Z,6.99
2023-03-14T10:52:35.653Z,6.98
2023-03-14T10:55:12.896Z,6.70
2023-03-14T10:57:44.478Z,6.47
2023-03-14T11:00:20.359Z,6.48
2023-03-14T11:03:09.827Z,6.65
2023-03-14T11:05:54.461Z,6.76
2023-03-14T11:08:38.618Z,6.73
2023-03-14T11:11:17.127Z,6.74
2023-03-14T11:13:55.125Z,6.76
2023-03-14T11:16:50.031Z,6.74
2023-03-14T11:20:09.899Z,7.16
2023-03-14T11:22:42.471Z,7.56
2023-03-14T11:25:28.132Z,7.85
2023-03-14T11:28:18.452Z,8.12
2023-03-14T11:31:07.941Z,8.14
2023-03-14T11:33:52.068Z,7.99
2023-03-14T11:36:28.300Z,7.91
2023-03-14T11:38:59.017Z,8.13
2023-03-14T11:41:56.056Z,8.16
2023-03-14T11:44:31.718Z,8.42
2023-03-14T11:47:09.180Z,8.53
2023-03-14T11:49:49.642Z,8.62
2023-03-14T11:52:33.601Z,8.54
2023-03-14T11:55:36.318Z,8.66
2023-03-14T11:58:20.765Z,8.81
2023-03-14T12:00:51.435Z,8.83
2023-03-14T12:03:27.342Z,8.73
2023-03-14T12:06:18.689Z,8.68
2023-03-14T12:08:58.563Z,8.82
2023-03-14T12:12:05.506Z,8.89
2023-03-14T12:14:35.475Z,8.96
2023-03-14T12:17:25.441Z,9.00
2023-03-14T12:20:23.353Z,9.19
2023-03-14T12:22:58.085Z,9.13
2023-03-14T12:25:28.356Z,9.12
2023-03-14T12:27:55.035Z,9.04
2023-03-14T12:30:26.596Z,9.03
2023-03-14T12:33:11.506Z,9.08
2023-03-14T12:35:42.701Z,8.80
2023-03-14T12:39:05.788Z,8.67
2023-03-14T12:41:52.211Z,8.74
2023-03-14T12:44:49.061Z,8.72
2023-03-14T12:47:29.132Z,8.78
2023-03-14T12:49:58.840Z,8.88
2023-03-14T12:52:51.264Z,8.71
2023-03-14T12:55:37.761Z,8.58
2023-03-14T12:58:13.389Z,8.46
2023-03-14T13:00:42.094Z,8.54
2023-03-14T13:03:27.043Z,8.26
2023-03-14T13:05:59.169Z,8.10
2023-03-14T13:08:34.690Z,8.18
2023-03-14T13:11:04.838Z,8.44
2023-03-14T13:13:34.986Z,8.67
2023-03-14T13:16:04.880Z,8.80
2023-03-14T13:18:43.260Z,8.98
2023-03-14T13:21:23.285Z,8.81
2023-03-14T13:24:03.552Z,8.47
2023-03-14T13:26:44.039Z,8.27
2023-03-14T13:29:42.921Z,8.06
2023-03-14T13:32:29.661Z,7.92
2023-03-14T13:35:00.690Z,8.19
2023-03-14T13:37:27.640Z,8.46
2023-03-14T13:39:56.570Z,8.72
2023-03-14T13:42:32.869Z,8.91
2023-03-14T13:45:00.898Z,9.04
2023-03-14T13:47:27.769Z,9.16
2023-03-14T13:49:54.621Z,8.92
2023-03-14T13:52:32.735Z,8.73
2023-03-14T13:55:01.857Z,8.64
2023-03-14T13:57:28.490Z,8.65
2023-03-14T14:00:12.005Z,8.50
2023-03-14T14:02:41.118Z,8.54
2023-03-14T14:05:11.446Z,8.34
2023-03-14T14:07:39.954Z,8.17
2023-03-14T14:10:09.987Z,8.05
2023-03-14T14:12:44.074Z,7.91
2023-03-14T14:15:25.073Z,8.13
2023-03-14T14:17:55.492Z,8.23
2023-03-14T14:20:33.384Z,7.95
2023-03-14T14:23:04.691Z,7.87
2023-03-14T14:25:32.060Z,7.74
2023-03-14T14:27:58.810Z,7.62
2023-03-14T14:30:32.390Z,7.57
2023-03-14T14:33:20.253Z,7.50
2023-03-14T14:36:01.682Z,7.41
2023-03-14T14:38:31.379Z,7.37
2023-03-14T14:41:03.977Z,7.34
2023-03-14T14:43:37.612Z,7.32
2023-03-14T14:46:09.371Z,7.31
2023-03-14T14:48:39.491Z,7.22
2023-03-14T14:51:08.076Z,7.30
2023-03-14T14:53:40.552Z,7.22
2023-03-14T14:56:29.613Z,7.24
2023-03-14T14:59:04.500Z,7.24
2023-03-14T15:01:37.444Z,7.18
2023-03-14T15:04:14.570Z,7.14
2023-03-14T15:06:44.847Z,7.08
2023-03-14T15:09:12.327Z,7.08
2023-03-14T15:11:38.809Z,7.09
2023-03-14T15:14:05.219Z,7.00
2023-03-14T15:16:32.967Z,7.06
2023-03-14T15:19:06.520Z,7.04
2023-03-14T15:21:38.099Z,7.10
2023-03-14T15:24:06.528Z,7.13
2023-03-14T15:26:32.905Z,7.08
2023-03-14T15:28:59.286Z,7.05
2023-03-14T15:31:25.879Z,7.04
2023-03-14T15:33:52.318Z,7.03
2023-03-14T15:36:25.522Z,7.11
2023-03-14T15:38:53.383Z,7.12
2023-03-14T15:41:20.955Z,7.01
2023-03-14T15:43:48.042Z,6.92
2023-03-14T15:46:15.669Z,6.81
2023-03-14T15:48:42.794Z,6.77
2023-03-14T15:51:09.189Z,6.84
2023-03-14T15:53:38.171Z,6.82
2023-03-14T15:56:06.316Z,6.80
2023-03-14T15:58:34.904Z,6.78
2023-03-14T16:01:02.958Z,6.67
2023-03-14T16:03:30.390Z,6.56
2023-03-14T16:05:56.992Z,6.47
2023-03-14T16:08:26.738Z,6.39
2023-03-14T16:10:53.328Z,6.41
2023-03-14T16:13:19.911Z,6.36
2023-03-14T16:16:04.982Z,6.34
2023-03-14T16:18:34.011Z,6.34
2023-03-14T16:21:03.524Z,6.30
2023-03-14T16:23:30.298Z,6.26
2023-03-14T16:25:57.260Z,6.21
2023-03-14T16:28:24.649Z,6.17
2023-03-14T16:30:51.201Z,6.18
2023-03-14T16:33:18.290Z,6.18
2023-03-14T16:36:12.197Z,6.20
2023-03-14T16:38:40.883Z,6.22
2023-03-14T16:41:11.604Z,6.20
2023-03-14T16:43:38.123Z,6.19
2023-03-14T16:46:06.650Z,6.17
2023-03-14T16:48:33.741Z,6.13
2023-03-14T16:51:00.236Z,6.11
2023-03-14T16:53:30.351Z,6.08
2023-03-14T16:55:59.055Z,6.09
2023-03-14T16:58:25.778Z,6.08
2023-03-14T17:00:52.363Z,6.06
2023-03-14T17:03:19.760Z,6.04
2023-03-14T17:05:51.484Z,6.02
2023-03-14T17:08:19.769Z,5.99
2023-03-14T17:10:47.017Z,5.95
2023-03-14T17:13:13.881Z,5.90
2023-03-14T17:15:45.636Z,5.85
2023-03-14T17:18:13.239Z,5.78
2023-03-14T17:20:41.057Z,5.71
2023-03-14T17:23:07.458Z,5.63
2023-03-14T17:25:33.923Z,5.57
2023-03-14T17:28:00.308Z,5.49
2023-03-14T17:30:26.710Z,5.41
2023-03-14T17:32:53.187Z,5.34
2023-03-14T17:35:19.904Z,5.29
2023-03-14T17:37:46.328Z,5.19
2023-03-14T17:40:12.846Z,5.15
2023-03-14T17:42:39.409Z,5.11
2023-03-14T17:45:06.478Z,5.05
2023-03-14T17:47:32.943Z,5.01
2023-03-14T17:49:59.323Z,4.94
2023-03-14T17:52:25.708Z,4.85
2023-03-14T17:54:52.100Z,4.82
2023-03-14T17:57:18.570Z,4.82
2023-03-14T17:59:44.964Z,4.77
2023-03-14T18:02:11.688Z,4.71
2023-03-14T18:04:38.268Z,4.66
2023-03-14T18:07:04.844Z,4.63
2023-03-14T18:09:31.623Z,4.58
2023-03-14T18:12:07.718Z,4.53
2023-03-14T18:14:36.262Z,4.43
2023-03-14T18:17:03.166Z,4.37
2023-03-14T18:19:29.533Z,4.28
2023-03-14T18:21:55.910Z,4.29
2023-03-14T18:24:22.474Z,4.28
2023-03-14T18:26:48.885Z,4.27
2023-03-14T18:29:15.550Z,4.21
2023-03-14T18:31:42.839Z,4.13
2023-03-14T18:34:10.432Z,4.06
2023-03-14T18:36:37.097Z,4.03
2023-03-14T18:39:06.908Z,3.96
2023-03-14T18:41:35.366Z,3.92
2023-03-14T18:44:03.329Z,3.91
2023-03-14T18:46:30.599Z,3.83
2023-03-14T18:48:57.684Z,3.74
2023-03-14T18:51:25.994Z,3.69
2023-03-14T18:53:56.467Z,3.69
2023-03-14T18:56:29.399Z,3.59
2023-03-14T18:58:55.912Z,3.52
2023-03-14T19:01:22.701Z,3.41
2023-03-14T19:03:49.192Z,3.34
2023-03-14T19:06:17.302Z,3.23
2023-03-14T19:08:43.777Z,3.11
2023-03-14T19:11:12.772Z,3.04
2023-03-14T19:13:41.802Z,2.96
2023-03-14T19:16:11.881Z,2.87
2023-03-14T19:18:38.407Z,2.79
2023-03-14T19:21:10.170Z,2.74
2023-03-14T19:23:39.468Z,2.68
2023-03-14T19:26:06.109Z,2.64
2023-03-14T19:28:32.556Z,2.55
2023-03-14T19:31:01.482Z,2.49
2023-03-14T19:33:27.931Z,2.42
2023-03-14T19:35:54.458Z,2.36
2023-03-14T19:38:20.884Z,2.28
2023-03-14T19:40:47.600Z,2.22
2023-03-14T19:43:14.059Z,2.19
2023-03-14T19:45:42.637Z,2.18
2023-03-14T19:48:11.223Z,2.12
2023-03-14T19:50:39.043Z,2.13
2023-03-14T19:53:08.056Z,2.14
2023-03-14T19:55:35.053Z,2.15
2023-03-14T19:58:01.632Z,2.17
2023-03-14T20:00:28.380Z,2.20
2023-03-14T20:02:54.943Z,2.20
2023-03-14T20:05:23.100Z,2.19
2023-03-14T20:07:50.114Z,2.21
2023-03-14T20:10:19.017Z,2.27
2023-03-14T20:12:46.285Z,2.33
2023-03-14T20:15:18.173Z,2.43
2023-03-14T20:17:46.127Z,2.56
2023-03-14T20:20:13.286Z,2.76
2023-03-14T20:22:39.800Z,2.83
2023-03-14T20:25:15.119Z,2.81
2023-03-14T20:27:42.597Z,2.79
2023-03-14T20:30:12.843Z,2.74
2023-03-14T20:32:40.520Z,2.69
2023-03-14T20:35:09.153Z,2.66
2023-03-14T20:37:35.654Z,2.64
2023-03-14T20:40:02.107Z,2.60
2023-03-14T20:42:28.518Z,2.58
2023-03-14T20:44:54.959Z,2.54
2023-03-14T20:47:21.418Z,2.53
2023-03-14T20:49:47.817Z,2.54
2023-03-14T20:52:14.423Z,2.51
2023-03-14T20:54:41.439Z,2.49
2023-03-14T20:57:07.914Z,2.42
2023-03-14T20:59:34.414Z,2.37
2023-03-14T21:04:44.962Z,2.26
2023-03-14T21:07:12.162Z,2.22
2023-03-14T21:09:38.583Z,2.16
2023-03-14T21:12:07.957Z,2.13
2023-03-14T21:14:34.802Z,2.11
2023-03-14T21:17:01.438Z,2.07
2023-03-14T21:19:34.027Z,2.06
2023-03-14T21:22:03.819Z,2.07
2023-03-14T21:24:30.509Z,2.08
2023-03-14T21:26:57.496Z,2.07
2023-03-14T21:29:24.438Z,2.06
2023-03-14T21:31:51.327Z,2.08
2023-03-14T21:34:20.865Z,2.10
2023-03-14T21:36:48.865Z,2.10
2023-03-14T21:39:15.630Z,2.19
2023-03-14T21:41:42.057Z,2.25
2023-03-14T21:44:08.485Z,2.31
2023-03-14T21:46:36.713Z,2.33
2023-03-14T21:49:03.905Z,2.37
2023-03-14T21:51:31.429Z,2.44
2023-03-14T21:53:57.844Z,2.52
2023-03-14T21:56:26.952Z,2.55
2023-03-14T21:58:58.983Z,2.61
2023-03-14T22:01:25.659Z,2.64
2023-03-14T22:03:53.442Z,2.68
2023-03-14T22:06:19.863Z,2.71
2023-03-14T22:08:46.296Z,2.72
2023-03-14T22:11:12.676Z,2.76
2023-03-14T22:13:39.044Z,2.78
2023-03-14T22:16:07.050Z,2.84
2023-03-14T22:18:33.714Z,2.91
2023-03-14T22:21:00.205Z,2.94
2023-03-14T22:23:26.680Z,2.98
2023-03-14T22:25:53.092Z,2.99
2023-03-14T22:28:20.550Z,2.95
2023-03-14T22:30:48.752Z,2.86
2023-03-14T22:33:16.359Z,2.84
2023-03-14T22:35:42.805Z,2.72
2023-03-14T22:38:09.280Z,2.61
2023-03-14T22:40:38.200Z,2.54
2023-03-14T22:43:04.646Z,2.44
2023-03-14T22:45:31.107Z,2.34
2023-03-14T22:47:57.622Z,2.23
2023-03-14T22:50:24.364Z,2.06
2023-03-14T22:52:50.770Z,1.96
2023-03-14T22:55:17.521Z,1.85
2023-03-14T22:57:44.135Z,1.81
2023-03-14T23:00:14.057Z,1.78
2023-03-14T23:02:41.080Z,1.71
2023-03-14T23:05:07.964Z,1.66
2023-03-14T23:07:34.446Z,1.66
2023-03-14T23:10:00.850Z,1.61
2023-03-14T23:12:27.258Z,1.61
2023-03-14T23:14:53.967Z,1.57
2023-03-14T23:17:22.664Z,1.54
2023-03-14T23:19:49.087Z,1.56
2023-03-14T23:22:15.515Z,1.56
2023-03-14T23:24:42.153Z,1.54
2023-03-14T23:27:08.615Z,1.55
2023-03-14T23:29:35.058Z,1.57
2023-03-14T23:32:01.455Z,1.57
2023-03-14T23:34:27.921Z,1.54
2023-03-14T23:36:54.597Z,1.55
2023-03-14T23:39:20.966Z,1.52
2023-03-14T23:41:47.338Z,1.51
2023-03-14T23:44:13.854Z,1.48
2023-03-14T23:46:40.267Z,1.42
2023-03-14T23:49:06.740Z,1.39
2023-03-14T23:51:33.231Z,1.35
2023-03-14T23:53:59.653Z,1.34
2023-03-14T23:56:26.358Z,1.27
2023-03-14T23:58:53.949Z,1.22
